Aviation Digital Data Service (ADDS)

Output produced by METARs form (0531 UTC 23 August 2014)
found at http://aviationweather.gov/adds/metars/
 
KMSS 230528Z 2306/2406 05003KT P6SM BKN035 
     TEMPO 2308/2312 3SM BR BKN015 
     FM231400 05006KT P6SM SCT035 
     FM240000 VRB03KT P6SM SKC